yooclick.com alexa rank chart, yooclick.com alexa rank daily changes

yooclick.com alexa rank chart, yooclick.com alexa rank daily changes

yooclick.com
Actual rank:
220 062

RANK HISTORY

Date Rank Diff
2017/05/28 220 062 -2 266
2017/05/27 222 328 -885
2017/05/26 223 213 -2 774
2017/05/25 225 987 +412
2017/05/24 225 575 +4 245
2017/05/23 221 330 -150
2017/05/22 221 480 +7 250
2017/05/21 214 230 +2 640
2017/05/20 211 590 +5 370
2017/05/19 206 220 +4 593
2017/05/18 201 627 +3 022
2017/05/17 198 605 -3 248
2017/05/16 201 853 -2 992
2017/05/15 204 845 +1 494
2017/05/14 203 351 -5 465
2017/05/13 208 816 -2 911
2017/05/12 211 727 +26
2017/05/11 211 701 +769
2017/05/10 210 932 +833
2017/05/09 210 099 -2 875
2017/05/08 212 974 -1 612
2017/05/07 214 586 +1 206
2017/05/06 213 380 -745
2017/05/05 214 125 +790
2017/05/04 213 335 +3 179
2017/05/03 210 156 +636
2017/05/02 209 520 -1 827
2017/05/01 211 347 +1 529
2017/04/30 209 818 +1 197
2017/04/29 208 621 -2 974
2017/04/28 211 595 -2 191
2017/04/27 213 786 +110
2017/04/26 213 676 +2 173
2017/04/25 211 503 -952
2017/04/24 212 455 -1 148
2017/04/23 213 603 -1 300
2017/04/22 214 903 -9 012
2017/04/21 223 915 -1 643
2017/04/20 225 558 +5 401
2017/04/19 220 157 +2 110
2017/04/18 218 047 -8 297
2017/04/17 226 344 +1 026
2017/04/16 225 318 -1 739
2017/04/15 227 057 -1 320
2017/04/14 228 377 +8 761
2017/04/13 219 616 -3 395
2017/04/12 223 011 +4 698
2017/04/11 218 313 +1 161
2017/04/10 217 152 +1 783
2017/04/09 215 369 -1 824
2017/04/08 217 193 -3 269
2017/04/07 220 462 +1 897
2017/04/06 218 565 +2 292
2017/04/05 216 273 -1 553
2017/04/04 217 826 -2 106
2017/04/03 219 932 -1 302
2017/04/02 221 234 -3 413
2017/04/01 224 647 -2 001
2017/03/31 226 648 +182
2017/03/30 226 466 -661
2017/03/29 227 127

WIDGET FOR YOUR SITE

DOMAINS WITH THE NEAREST RANK

Domain Rank
ti21.co.kr 220 057
btnews.me 220 058
sszuidiagraphs.download 220 059
vqcjw.com 220 060
tnpu.edu.ua 220 061
yooclick.com 220 062
speedtest-ptcl.com 220 063
petrolimex.com.vn 220 064
layoverguide.com 220 065
kaufland.hr 220 066
razorsync.com 220 067

DOMAINS WITH THE NEAREST RANK BY TLD .com

Domain Rank
yujihw.com 220 047
btconferencing.com 220 048
pointswithacrew.com 220 049
ivpress.com 220 056
vqcjw.com 220 060
yooclick.com 220 062
speedtest-ptcl.com 220 063
layoverguide.com 220 065
razorsync.com 220 067
tastytuts.com 220 071
pornbox.com 220 073